Time;durP1;ratioP1;P1;durP2;ratioP2;P2;SDS_P1;SDS_P2;PMS_P1;PMS_P2;Temp;Humidity;BMP_temperature;BMP_pressure;BME280_temperature;BME280_humidity;BME280_pressure;Samples;Min_cycle;Max_cycle;Signal;HPM_P1;HPM_P2
2023/12/07 00:00:47;;;;;;;44.10;25.60;;;;;;;-6.48;100.00;101255.73;88504;280;138752;-73
2023/12/07 00:02:49;;;;;;;41.20;24.50;;;;;;;-6.48;100.00;101252.95;88539;281;24122;-73
2023/12/07 00:04:52;;;;;;;42.70;25.60;;;;;;;-6.51;100.00;101261.70;88467;277;137198;-72
2023/12/07 00:06:54;;;;;;;41.80;26.30;;;;;;;-6.57;100.00;101264.55;88508;274;24438;-71
2023/12/07 00:08:56;;;;;;;46.30;26.90;;;;;;;-6.63;100.00;101264.25;88315;282;137133;-71
2023/12/07 00:10:58;;;;;;;42.50;25.40;;;;;;;-6.68;100.00;101268.05;88593;273;24054;-74
2023/12/07 00:13:00;;;;;;;42.60;25.90;;;;;;;-6.68;100.00;101270.80;88384;282;140055;-72
2023/12/07 00:15:05;;;;;;;47.00;26.10;;;;;;;-6.71;100.00;101260.71;88484;281;25112;-73
2023/12/07 00:17:06;;;;;;;39.70;25.00;;;;;;;-6.58;100.00;101274.10;88473;277;137563;-73
2023/12/07 00:19:08;;;;;;;40.60;23.30;;;;;;;-6.56;100.00;101270.20;88617;275;24058;-73
2023/12/07 00:21:10;;;;;;;40.00;24.20;;;;;;;-6.53;100.00;101275.64;88514;281;138085;-73
2023/12/07 00:23:12;;;;;;;37.50;23.20;;;;;;;-6.56;100.00;101273.49;88060;274;771585;-70
2023/12/07 00:25:15;;;;;;;39.20;23.70;;;;;;;-6.60;100.00;101272.26;88536;274;136751;-72
2023/12/07 00:27:18;;;;;;;44.10;25.00;;;;;;;-6.66;100.00;101274.17;88731;281;24054;-71
2023/12/07 00:29:20;;;;;;;40.00;25.70;;;;;;;-6.69;100.00;101271.19;88411;277;136730;-72
2023/12/07 00:31:22;;;;;;;44.00;24.20;;;;;;;-6.71;100.00;101267.45;88575;274;25248;-75
2023/12/07 00:33:24;;;;;;;33.20;21.70;;;;;;;-6.66;100.00;101276.77;88269;275;137149;-70
2023/12/07 00:35:28;;;;;;;41.40;23.50;;;;;;;-6.63;100.00;101272.39;88603;277;22530;-74
2023/12/07 00:37:31;;;;;;;38.80;22.70;;;;;;;-6.61;100.00;101272.97;88392;280;137682;-71
2023/12/07 00:39:33;;;;;;;38.60;24.00;;;;;;;-6.58;100.00;101270.80;88457;282;23613;-73
2023/12/07 00:41:36;;;;;;;39.70;24.40;;;;;;;-6.60;100.00;101267.23;88476;279;137935;-72
2023/12/07 00:43:38;;;;;;;38.40;24.20;;;;;;;-6.65;100.00;101266.37;88448;283;22558;-77
2023/12/07 00:45:39;;;;;;;43.70;25.70;;;;;;;-6.70;100.00;101266.75;88452;280;136851;-73
2023/12/07 00:47:42;;;;;;;41.70;23.60;;;;;;;-6.74;100.00;101267.92;88595;273;22516;-71
2023/12/07 00:49:44;;;;;;;45.00;26.40;;;;;;;-6.77;100.00;101265.61;88498;281;137200;-72
2023/12/07 00:51:46;;;;;;;40.40;25.30;;;;;;;-6.76;100.00;101267.27;88605;274;22517;-71
2023/12/07 00:53:48;;;;;;;41.90;23.10;;;;;;;-6.73;100.00;101269.96;88409;281;137623;-71
2023/12/07 00:55:50;;;;;;;39.40;23.00;;;;;;;-6.72;100.00;101265.77;88614;274;22777;-73
2023/12/07 00:57:52;;;;;;;39.40;21.60;;;;;;;-6.72;100.00;101266.95;88513;282;138841;-73
2023/12/07 00:59:54;;;;;;;42.00;25.70;;;;;;;-6.70;100.00;101267.61;88608;273;22529;-73
2023/12/07 01:01:56;;;;;;;40.40;23.00;;;;;;;-6.73;100.00;101262.16;88482;282;136108;-70
2023/12/07 01:03:58;;;;;;;41.10;23.80;;;;;;;-6.77;100.00;101267.14;88589;274;25096;-71
2023/12/07 01:06:00;;;;;;;42.60;24.20;;;;;;;-6.81;100.00;101265.91;88453;281;136871;-71
2023/12/07 01:08:03;;;;;;;44.60;25.30;;;;;;;-6.86;100.00;101257.78;88468;277;24054;-71
2023/12/07 01:10:06;;;;;;;43.90;23.70;;;;;;;-6.90;100.00;101256.88;88484;282;25133;-73
2023/12/07 01:12:08;;;;;;;40.40;24.40;;;;;;;-6.86;100.00;101260.05;88537;281;136325;-73
2023/12/07 01:14:11;;;;;;;39.40;24.00;;;;;;;-6.81;100.00;101250.71;88491;281;23404;-71
2023/12/07 01:16:13;;;;;;;37.70;21.40;;;;;;;-6.80;100.00;101252.23;88311;283;137748;-75
2023/12/07 01:18:15;;;;;;;34.70;20.80;;;;;;;-6.82;100.00;101248.48;88529;274;24054;-72
2023/12/07 01:20:17;;;;;;;35.80;22.70;;;;;;;-6.82;100.00;101252.63;88571;281;136965;-72
2023/12/07 01:22:20;;;;;;;35.40;23.40;;;;;;;-6.86;100.00;101247.56;88668;281;22621;-73
2023/12/07 01:24:23;;;;;;;39.20;23.50;;;;;;;-6.89;100.00;101244.41;88534;274;138405;-71
2023/12/07 01:26:25;;;;;;;37.60;22.00;;;;;;;-6.93;100.00;101248.70;88610;280;24082;-71
2023/12/07 01:28:28;;;;;;;38.50;22.10;;;;;;;-6.94;100.00;101247.19;88556;277;137223;-71
2023/12/07 01:30:30;;;;;;;32.10;19.80;;;;;;;-6.88;100.00;101244.40;88702;281;24164;-70
2023/12/07 01:32:32;;;;;;;34.70;20.30;;;;;;;-6.81;100.00;101244.85;88541;281;138282;-73
2023/12/07 01:34:34;;;;;;;34.90;20.70;;;;;;;-6.77;100.00;101249.17;88624;282;22646;-69
2023/12/07 01:36:36;;;;;;;34.50;20.60;;;;;;;-6.74;100.00;101250.27;88400;273;137111;-71
2023/12/07 01:38:38;;;;;;;32.50;20.50;;;;;;;-6.77;100.00;101248.81;88336;283;22532;-69
2023/12/07 01:40:40;;;;;;;35.20;20.00;;;;;;;-6.82;100.00;101247.46;88498;281;136778;-69
2023/12/07 01:42:54;;;;;;;;;;;;;;;-6.86;100.00;101247.75;88619;281;24027;-70
2023/12/07 01:44:56;;;;;;;35.30;21.30;;;;;;;-6.91;100.00;101253.11;88559;280;123063;-71
2023/12/07 01:46:58;;;;;;;40.10;23.50;;;;;;;-6.95;100.00;101247.74;88585;281;22550;-71
2023/12/07 01:49:02;;;;;;;38.60;21.30;;;;;;;-6.95;100.00;101251.71;88518;277;137116;-71
2023/12/07 01:51:06;;;;;;;35.80;21.90;;;;;;;-6.88;100.00;101247.15;88590;281;24014;-70
2023/12/07 01:53:08;;;;;;;29.30;19.60;;;;;;;-6.83;100.00;101248.02;88575;273;137808;-73
2023/12/07 01:55:11;;;;;;;33.90;19.50;;;;;;;-6.79;100.00;101249.60;88585;280;22538;-71
2023/12/07 01:57:14;;;;;;;37.20;21.10;;;;;;;-6.76;100.00;101251.73;88498;281;136652;-68
2023/12/07 01:59:16;;;;;;;36.20;21.70;;;;;;;-6.78;100.00;101251.62;88670;281;23875;-71
2023/12/07 02:01:18;;;;;;;37.20;21.00;;;;;;;-6.84;100.00;101245.98;88696;281;137020;-70
2023/12/07 02:03:21;;;;;;;37.00;22.70;;;;;;;-6.91;100.00;101247.74;88691;274;24049;-70
2023/12/07 02:05:25;;;;;;;39.20;23.00;;;;;;;-6.95;100.00;101250.86;88678;281;138256;-70
2023/12/07 02:07:28;;;;;;;36.80;21.90;;;;;;;-7.00;100.00;101253.95;88611;281;22536;-73
2023/12/07 02:09:31;;;;;;;37.60;20.70;;;;;;;-6.99;100.00;101251.70;88479;281;137282;-71
2023/12/07 02:11:34;;;;;;;35.90;21.30;;;;;;;-6.94;100.00;101252.73;88628;277;22586;-69
2023/12/07 02:13:40;;;;;;;36.30;23.50;;;;;;;-6.88;100.00;101252.84;88527;280;137710;-70
2023/12/07 02:15:42;;;;;;;32.90;20.70;;;;;;;-6.81;100.00;101253.48;88641;280;22533;-71
2023/12/07 02:17:44;;;;;;;34.40;21.30;;;;;;;-6.82;100.00;101249.02;88568;277;137830;-71
2023/12/07 02:20:00;;;;;;;36.20;19.80;;;;;;;-6.85;100.00;101246.01;88605;273;22523;-67
2023/12/07 02:22:12;;;;;;;35.20;20.80;;;;;;;-6.89;100.00;101247.53;88662;277;137365;-72
2023/12/07 02:24:21;;;;;;;38.90;23.40;;;;;;;-6.94;100.00;101249.77;88482;273;138200;-73
2023/12/07 02:26:31;;;;;;;35.00;21.80;;;;;;;-6.99;100.00;101249.42;88733;281;25096;-71
2023/12/07 02:28:34;;;;;;;34.70;21.80;;;;;;;-7.05;100.00;101252.05;88508;281;136813;-71
2023/12/07 02:30:36;;;;;;;35.30;19.80;;;;;;;-7.03;100.00;101252.52;88544;274;25168;-68
2023/12/07 02:32:43;;;;;;;35.60;20.80;;;;;;;-6.98;100.00;101249.05;88528;273;137369;-73
2023/12/07 02:34:45;;;;;;;32.30;20.60;;;;;;;-6.94;100.00;101249.42;88590;273;22529;-73
2023/12/07 02:36:51;;;;;;;33.40;20.50;;;;;;;-6.92;100.00;101243.30;88488;278;137003;-69
2023/12/07 02:38:58;;;;;;;31.50;20.20;;;;;;;-6.95;100.00;101247.91;88477;274;22534;-73
2023/12/07 02:41:01;;;;;;;35.90;20.80;;;;;;;-7.01;100.00;101247.45;88435;277;136764;-73
2023/12/07 02:43:04;;;;;;;40.10;24.50;;;;;;;-7.05;100.00;101245.85;88754;273;23406;-69
2023/12/07 02:45:07;;;;;;;35.90;21.40;;;;;;;-7.09;100.00;101243.91;88714;274;139990;-71
2023/12/07 02:47:09;;;;;;;40.60;24.40;;;;;;;-7.12;100.00;101248.69;88740;281;25143;-69
2023/12/07 02:49:11;;;;;;;36.00;21.40;;;;;;;-7.17;100.00;101250.04;88603;281;136827;-71
2023/12/07 02:51:13;;;;;;;37.10;19.70;;;;;;;-7.14;100.00;101244.75;88513;277;24138;-72
2023/12/07 02:53:15;;;;;;;32.60;20.10;;;;;;;-7.06;100.00;101244.34;88400;277;138873;-71
2023/12/07 02:55:17;;;;;;;32.90;19.70;;;;;;;-7.02;100.00;101245.07;88592;280;22515;-73
2023/12/07 02:57:20;;;;;;;36.40;21.40;;;;;;;-7.02;100.00;101245.57;88443;273;136987;-72
2023/12/07 02:59:23;;;;;;;32.40;21.80;;;;;;;-7.05;100.00;101243.09;88506;274;22450;-74
2023/12/07 03:01:25;;;;;;;32.20;19.70;;;;;;;-7.20;100.00;101231.33;88376;273;138603;-73
2023/12/07 03:03:28;;;;;;;33.70;20.40;;;;;;;-7.16;100.00;101249.85;88570;281;24164;-74
2023/12/07 03:05:30;;;;;;;34.50;20.40;;;;;;;-7.22;100.00;101244.70;88425;281;136804;-72
2023/12/07 03:07:55;;;;;;;37.20;21.30;;;;;;;-7.26;100.00;101246.37;88443;281;23498;-73
2023/12/07 03:09:57;;;;;;;35.40;20.90;;;;;;;-7.23;100.00;101246.80;88214;285;137032;-72
2023/12/07 03:12:00;;;;;;;34.70;19.60;;;;;;;-7.17;100.00;101249.55;88360;284;23547;-74
2023/12/07 03:14:03;;;;;;;31.40;18.80;;;;;;;-7.16;100.00;101251.75;88465;281;25258;-72
2023/12/07 03:16:10;;;;;;;35.00;19.90;;;;;;;-7.17;100.00;101249.73;88410;276;138309;-72
2023/12/07 03:18:13;;;;;;;35.90;21.90;;;;;;;-7.21;100.00;101254.16;88588;276;25203;-72
2023/12/07 03:20:17;;;;;;;35.10;21.60;;;;;;;-7.27;100.00;101259.04;88306;285;136985;-73
2023/12/07 03:22:19;;;;;;;38.30;22.50;;;;;;;-7.34;100.00;101260.96;88330;285;25124;-72
2023/12/07 03:24:21;;;;;;;35.50;20.90;;;;;;;-7.38;100.00;101263.87;88194;282;136585;-74
2023/12/07 03:26:23;;;;;;;34.80;20.70;;;;;;;-7.41;100.00;101264.17;88464;284;22526;-72
2023/12/07 03:28:25;;;;;;;35.60;19.60;;;;;;;-7.41;100.00;101264.69;88232;281;137318;-71
2023/12/07 03:30:27;;;;;;;30.70;18.60;;;;;;;-7.35;100.00;101261.71;88324;284;22571;-72
2023/12/07 03:32:29;;;;;;;33.60;20.10;;;;;;;-7.30;100.00;101259.12;88260;284;137540;-72
2023/12/07 03:34:33;;;;;;;32.80;20.60;;;;;;;-7.27;100.00;101258.16;88352;285;22553;-69
2023/12/07 03:36:36;;;;;;;31.20;19.00;;;;;;;-7.30;100.00;101263.62;88388;284;138706;-70
2023/12/07 03:38:38;;;;;;;39.40;21.00;;;;;;;-7.37;100.00;101262.30;88408;284;22581;-72
2023/12/07 03:40:40;;;;;;;31.90;20.60;;;;;;;-7.41;100.00;101268.11;88297;284;137469;-72
2023/12/07 03:42:42;;;;;;;33.80;20.90;;;;;;;-7.43;100.00;101265.41;88570;281;23487;-71
2023/12/07 03:44:57;;;;;;;34.20;20.70;;;;;;;-7.44;100.00;101271.84;88443;281;136690;-73
2023/12/07 03:46:59;;;;;;;37.20;20.90;;;;;;;-7.43;100.00;101270.79;88581;281;24015;-71
2023/12/07 03:49:01;;;;;;;42.40;20.30;;;;;;;-7.38;100.00;101271.13;88454;281;139173;-69
2023/12/07 03:51:03;;;;;;;33.90;18.40;;;;;;;-7.30;100.00;101266.73;88614;281;24018;-74
2023/12/07 03:53:05;;;;;;;33.40;20.70;;;;;;;-7.24;100.00;101265.15;88462;281;137116;-70
2023/12/07 03:55:10;;;;;;;33.50;20.00;;;;;;;-7.24;100.00;101270.14;88513;274;22543;-71
2023/12/07 03:57:13;;;;;;;38.00;19.80;;;;;;;-7.29;100.00;101267.54;88477;274;136554;-72
2023/12/07 03:59:15;;;;;;;32.10;19.70;;;;;;;-7.33;100.00;101270.80;88446;274;23746;-69
2023/12/07 04:01:27;;;;;;;32.60;20.00;;;;;;;-7.38;100.00;101268.53;88465;278;138164;-71
2023/12/07 04:03:29;;;;;;;32.90;20.30;;;;;;;-7.42;100.00;101262.80;88811;281;23942;-71
2023/12/07 04:05:32;;;;;;;35.70;20.80;;;;;;;-7.49;100.00;101263.36;88466;281;137751;-71
2023/12/07 04:07:35;;;;;;;31.80;19.30;;;;;;;-7.52;100.00;101266.42;88612;281;24032;-73
2023/12/07 04:09:38;;;;;;;35.70;19.90;;;;;;;-7.53;100.00;101266.29;88490;280;137889;-73
2023/12/07 04:11:40;;;;;;;34.40;20.10;;;;;;;-7.48;100.00;101269.55;88634;277;24020;-73
2023/12/07 04:13:45;;;;;;;32.90;20.20;;;;;;;-7.45;100.00;101266.55;88479;277;137521;-73
2023/12/07 04:15:47;;;;;;;33.70;19.80;;;;;;;-7.46;100.00;101266.20;88708;274;23007;-72
2023/12/07 04:17:49;;;;;;;33.80;19.10;;;;;;;-7.50;100.00;101265.30;88511;282;136506;-71
2023/12/07 04:19:51;;;;;;;31.30;19.80;;;;;;;-7.54;100.00;101265.27;88691;281;24049;-74
2023/12/07 04:21:55;;;;;;;37.50;21.90;;;;;;;-7.57;100.00;101266.93;88494;273;136401;-71
2023/12/07 04:24:38;;;;;;;35.10;21.30;;;;;;;-7.66;100.00;101265.49;86970;304;602432;-71
2023/12/07 04:26:40;;;;;;;32.90;20.20;;;;;;;-7.70;100.00;101263.85;88012;294;22550;-70
2023/12/07 04:28:42;;;;;;;32.30;20.10;;;;;;;-7.69;100.00;101264.52;87862;294;136787;-72
2023/12/07 04:30:44;;;;;;;36.50;21.30;;;;;;;-7.65;100.00;101261.83;87895;285;25262;-73
2023/12/07 04:32:46;;;;;;;32.30;18.90;;;;;;;-7.63;100.00;101265.89;87803;291;136483;-72
2023/12/07 04:34:49;;;;;;;32.10;19.10;;;;;;;-7.59;100.00;101262.16;88003;290;22548;-71
2023/12/07 04:36:51;;;;;;;33.30;19.30;;;;;;;-7.56;100.00;101260.15;88066;287;136328;-73
2023/12/07 04:38:54;;;;;;;32.90;19.90;;;;;;;-7.59;100.00;101258.89;88053;282;662947;-72
2023/12/07 04:40:56;;;;;;;37.60;21.60;;;;;;;-7.67;100.00;101263.62;88636;289;136492;-73
2023/12/07 04:42:59;;;;;;;32.80;19.40;;;;;;;-7.74;100.00;101260.04;88838;286;25241;-69
2023/12/07 04:45:01;;;;;;;32.70;20.30;;;;;;;-7.79;100.00;101262.80;88662;289;137946;-72
2023/12/07 04:47:05;;;;;;;37.70;22.40;;;;;;;-7.84;100.00;101262.44;88280;282;24059;-74
2023/12/07 04:49:07;;;;;;;34.80;20.00;;;;;;;-7.86;100.00;101261.44;88511;289;137211;-73
2023/12/07 04:51:10;;;;;;;34.90;20.10;;;;;;;-7.85;100.00;101263.98;88777;289;24173;-71
2023/12/07 04:53:12;;;;;;;33.30;19.90;;;;;;;-7.84;100.00;101265.19;88819;289;137211;-72
2023/12/07 04:55:15;;;;;;;29.30;19.90;;;;;;;-7.83;100.00;101260.66;89362;286;22540;-71
2023/12/07 04:57:17;;;;;;;33.80;17.40;;;;;;;-7.80;100.00;101253.52;89176;289;136615;-70
2023/12/07 04:59:19;;;;;;;31.60;18.90;;;;;;;-7.80;100.00;101256.25;89261;289;22563;-70
2023/12/07 05:01:21;;;;;;;34.50;19.50;;;;;;;-7.83;100.00;101261.37;88747;282;137330;-73
2023/12/07 05:03:23;;;;;;;32.90;20.40;;;;;;;-7.88;100.00;101261.35;88355;277;22539;-74
2023/12/07 05:05:25;;;;;;;37.00;20.20;;;;;;;-7.94;100.00;101265.14;88221;277;136425;-73
2023/12/07 05:07:30;;;;;;;35.40;19.80;;;;;;;-7.99;100.00;101265.13;88367;277;25249;-71
2023/12/07 05:09:32;;;;;;;29.10;19.70;;;;;;;-8.05;100.00;101270.47;88300;284;136601;-70
2023/12/07 05:11:34;;;;;;;30.20;18.60;;;;;;;-8.03;100.00;101270.08;88387;277;25143;-72
2023/12/07 05:13:36;;;;;;;34.60;20.10;;;;;;;-7.96;100.00;101268.85;88220;276;137270;-71
2023/12/07 05:15:38;;;;;;;30.40;18.40;;;;;;;-7.95;100.00;101264.48;88520;276;22531;-71
2023/12/07 05:17:40;;;;;;;30.20;17.60;;;;;;;-7.93;100.00;101265.12;88171;277;136837;-72
2023/12/07 05:19:44;;;;;;;33.50;20.00;;;;;;;-7.97;100.00;101275.06;88316;277;23986;-70
2023/12/07 05:21:47;;;;;;;32.30;20.10;;;;;;;-8.04;100.00;101275.60;88227;277;137654;-67
2023/12/07 05:23:49;;;;;;;33.30;18.60;;;;;;;-8.09;100.00;101277.32;88488;283;23859;-71
2023/12/07 05:25:51;;;;;;;34.10;18.30;;;;;;;-8.14;100.00;101283.69;88111;280;137746;-71
2023/12/07 05:27:53;;;;;;;31.20;19.40;;;;;;;-8.12;100.00;101283.98;88379;279;23985;-71
2023/12/07 05:29:56;;;;;;;31.30;18.80;;;;;;;-8.08;100.00;101283.67;88218;275;137497;-68
2023/12/07 05:31:58;;;;;;;36.40;20.10;;;;;;;-8.06;100.00;101283.45;88371;275;22537;-74
2023/12/07 05:34:00;;;;;;;38.80;21.20;;;;;;;-8.06;100.00;101279.48;88098;277;136237;-67
2023/12/07 05:36:03;;;;;;;32.10;19.00;;;;;;;-8.08;100.00;101276.61;88138;276;136783;-68
2023/12/07 05:38:05;;;;;;;32.10;19.00;;;;;;;-8.12;100.00;101275.54;88538;276;22531;-68
2023/12/07 05:40:09;;;;;;;36.40;21.30;;;;;;;-8.26;100.00;101262.16;88226;276;136491;-68
2023/12/07 05:42:11;;;;;;;40.00;22.80;;;;;;;-8.20;100.00;101274.55;88490;276;24063;-66
2023/12/07 05:44:21;;;;;;;34.80;22.30;;;;;;;-8.20;100.00;101271.27;88021;280;137017;-66
2023/12/07 05:46:23;;;;;;;36.10;20.90;;;;;;;-8.16;100.00;101266.69;88272;276;22547;-67
2023/12/07 05:48:26;;;;;;;40.90;23.80;;;;;;;-8.16;100.00;101274.08;88072;283;138048;-68
2023/12/07 05:50:30;;;;;;;35.50;20.30;;;;;;;-8.25;100.00;101259.88;88331;276;24021;-68
2023/12/07 05:52:32;;;;;;;34.10;20.30;;;;;;;-8.15;100.00;101270.59;88148;283;137144;-68
2023/12/07 05:54:34;;;;;;;33.10;20.40;;;;;;;-8.20;100.00;101256.29;88264;276;22582;-68
2023/12/07 05:56:36;;;;;;;34.10;18.40;;;;;;;-8.14;100.00;101266.97;88205;276;136293;-70
2023/12/07 05:58:38;;;;;;;34.50;19.30;;;;;;;-8.19;100.00;101264.02;88194;277;22544;-68
2023/12/07 06:00:40;;;;;;;36.40;21.80;;;;;;;-8.24;100.00;101267.07;88196;276;137539;-70
2023/12/07 06:02:43;;;;;;;34.60;19.60;;;;;;;-8.27;100.00;101270.61;88159;276;22533;-68
2023/12/07 06:04:45;;;;;;;31.50;19.10;;;;;;;-8.26;100.00;101269.73;88231;276;136604;-70
2023/12/07 06:06:47;;;;;;;33.50;20.20;;;;;;;-8.20;100.00;101265.58;88349;277;26165;-70
2023/12/07 06:08:49;;;;;;;34.60;18.20;;;;;;;-8.14;100.00;101266.43;88275;276;137198;-73
2023/12/07 06:10:51;;;;;;;32.40;18.60;;;;;;;-8.11;100.00;101270.85;88355;276;22537;-70
2023/12/07 06:12:55;;;;;;;32.20;18.20;;;;;;;-8.14;100.00;101274.20;88200;281;136303;-71
2023/12/07 06:14:57;;;;;;;33.10;19.60;;;;;;;-8.18;100.00;101265.70;88229;283;22549;-71
2023/12/07 06:17:01;;;;;;;31.80;18.10;;;;;;;-8.22;100.00;101260.62;88079;276;137963;-69
2023/12/07 06:19:03;;;;;;;32.40;18.60;;;;;;;-8.23;100.00;101263.08;88265;280;24016;-69
2023/12/07 06:21:06;;;;;;;35.00;20.30;;;;;;;-8.24;100.00;101264.14;88081;276;136291;-71
2023/12/07 06:23:12;;;;;;;33.60;19.30;;;;;;;-8.18;100.00;101263.83;88381;276;25908;-73
2023/12/07 06:25:14;;;;;;;39.60;20.40;;;;;;;-8.03;100.00;101275.08;88463;273;137317;-71
2023/12/07 06:27:18;;;;;;;36.20;19.30;;;;;;;-7.92;100.00;101276.13;88345;273;24034;-71
2023/12/07 06:29:20;;;;;;;31.70;18.10;;;;;;;-7.84;100.00;101278.65;88369;277;139090;-70
2023/12/07 06:31:22;;;;;;;36.10;17.90;;;;;;;-7.75;100.00;101280.96;88447;273;22530;-71
2023/12/07 06:33:24;;;;;;;35.10;20.60;;;;;;;-7.67;100.00;101279.66;88445;277;136805;-69
2023/12/07 06:35:27;;;;;;;32.50;18.80;;;;;;;-7.56;100.00;101278.47;88525;274;24020;-70
2023/12/07 06:37:29;;;;;;;34.80;19.00;;;;;;;-7.45;100.00;101274.31;88438;274;137269;-72
2023/12/07 06:39:31;;;;;;;31.90;18.50;;;;;;;-7.35;100.00;101265.52;88442;279;25210;-70
2023/12/07 06:41:33;;;;;;;29.50;17.40;;;;;;;-7.28;100.00;101265.98;88329;273;138928;-70
2023/12/07 06:43:35;;;;;;;32.40;18.70;;;;;;;-7.19;100.00;101264.11;88427;273;25192;-71
2023/12/07 06:45:37;;;;;;;29.50;17.70;;;;;;;-7.09;100.00;101264.46;88304;273;137034;-69
2023/12/07 06:47:39;;;;;;;31.70;18.50;;;;;;;-7.00;100.00;101263.30;88318;275;25170;-71
2023/12/07 06:49:41;;;;;;;33.30;19.10;;;;;;;-7.03;100.00;101262.89;88278;273;136206;-71
2023/12/07 06:51:53;;;;;;;32.80;18.90;;;;;;;-7.12;100.00;101268.35;88433;273;25954;-67
2023/12/07 06:53:55;;;;;;;28.60;19.20;;;;;;;-7.18;100.00;101265.30;88570;273;137570;-70
2023/12/07 06:55:58;;;;;;;38.50;21.50;;;;;;;-7.27;100.00;101263.69;88462;277;26139;-67
2023/12/07 06:58:00;;;;;;;34.50;21.10;;;;;;;-7.35;100.00;101263.79;88285;274;135781;-70
2023/12/07 07:00:05;;;;;;;38.00;20.80;;;;;;;-7.42;100.00;101259.00;88416;274;22603;-68
2023/12/07 07:02:09;;;;;;;38.30;22.80;;;;;;;-7.44;100.00;101262.85;88491;273;22512;-71
2023/12/07 07:04:11;;;;;;;39.40;22.40;;;;;;;-7.46;100.00;101257.23;88343;273;136728;-69
2023/12/07 07:06:15;;;;;;;37.40;21.40;;;;;;;-7.48;100.00;101260.41;88525;273;24057;-70
2023/12/07 07:08:17;;;;;;;32.60;20.00;;;;;;;-7.50;100.00;101257.86;88570;277;137932;-70
2023/12/07 07:10:19;;;;;;;37.30;20.90;;;;;;;-7.43;100.00;101254.02;88510;273;22527;-70
2023/12/07 07:12:22;;;;;;;34.40;18.80;;;;;;;-7.33;100.00;101257.84;88419;275;137496;-68
2023/12/07 07:14:24;;;;;;;32.40;20.10;;;;;;;-7.25;100.00;101258.10;88611;274;24256;-68
2023/12/07 07:16:26;;;;;;;34.70;21.10;;;;;;;-7.17;100.00;101260.08;88408;273;138358;-69
2023/12/07 07:18:28;;;;;;;31.90;18.30;;;;;;;-7.07;100.00;101269.73;88212;275;22584;-70
2023/12/07 07:20:30;;;;;;;33.00;19.80;;;;;;;-6.96;100.00;101261.09;88405;273;137175;-69
2023/12/07 07:22:34;;;;;;;32.50;20.30;;;;;;;-6.88;100.00;101259.92;88467;273;27002;-70
2023/12/07 07:24:37;;;;;;;31.00;19.00;;;;;;;-6.79;100.00;101261.69;88504;274;136897;-70
2023/12/07 07:26:41;;;;;;;34.70;18.40;;;;;;;-6.68;100.00;101260.96;88393;273;24057;-66
2023/12/07 07:28:44;;;;;;;31.40;18.30;;;;;;;-6.69;100.00;101249.40;88211;273;137035;-71
2023/12/07 07:30:46;;;;;;;29.60;18.90;;;;;;;-6.52;100.00;101263.15;88465;273;22533;-70
2023/12/07 07:32:48;;;;;;;32.40;19.70;;;;;;;-6.45;100.00;101261.86;88384;274;137385;-72
2023/12/07 07:34:51;;;;;;;28.40;18.50;;;;;;;-6.39;100.00;101264.59;88587;273;22534;-67
2023/12/07 07:36:53;;;;;;;35.50;20.60;;;;;;;-6.32;100.00;101266.89;88447;274;137272;-70
2023/12/07 07:38:55;;;;;;;30.90;18.30;;;;;;;-6.25;100.00;101265.75;88650;277;22537;-66
2023/12/07 07:41:00;;;;;;;35.70;21.70;;;;;;;-6.23;100.00;101267.96;88622;281;137025;-70
2023/12/07 07:43:02;;;;;;;37.50;21.30;;;;;;;-6.28;100.00;101271.06;88619;273;22886;-71
2023/12/07 07:45:05;;;;;;;32.40;20.30;;;;;;;-6.34;100.00;101265.75;88386;273;136375;-70
2023/12/07 07:47:08;;;;;;;37.30;23.30;;;;;;;-6.37;100.00;101263.98;88521;273;24055;-70
2023/12/07 07:49:10;;;;;;;34.90;21.00;;;;;;;-6.44;100.00;101267.35;88368;281;139182;-69
2023/12/07 07:51:12;;;;;;;37.90;22.20;;;;;;;-6.49;100.00;101264.59;88412;273;22987;-69
2023/12/07 07:53:16;;;;;;;33.40;20.80;;;;;;;-6.53;100.00;101267.33;88269;273;136707;-70
2023/12/07 07:55:18;;;;;;;37.30;22.80;;;;;;;-6.58;100.00;101266.98;88554;273;22526;-67
2023/12/07 07:57:20;;;;;;;42.70;23.80;;;;;;;-6.60;100.00;101264.14;88267;273;137068;-68
2023/12/07 07:59:23;;;;;;;35.90;20.00;;;;;;;-6.73;100.00;101250.41;88354;277;22530;-70
2023/12/07 08:01:24;;;;;;;37.60;22.70;;;;;;;-6.64;100.00;101268.92;88255;281;137051;-70
2023/12/07 08:03:27;;;;;;;35.90;21.00;;;;;;;-6.61;100.00;101279.39;88461;274;24054;-71
2023/12/07 08:05:29;;;;;;;33.60;21.10;;;;;;;-6.61;100.00;101285.42;88226;277;137334;-71
2023/12/07 08:07:32;;;;;;;35.70;22.20;;;;;;;-6.59;100.00;101294.34;88473;275;22810;-71
2023/12/07 08:09:34;;;;;;;36.00;21.40;;;;;;;-6.59;100.00;101289.33;88450;282;136268;-69
2023/12/07 08:11:38;;;;;;;34.70;21.60;;;;;;;-6.59;100.00;101288.99;88384;275;22571;-68
2023/12/07 08:13:40;;;;;;;37.00;22.80;;;;;;;-6.60;100.00;101296.48;88399;274;136847;-72
2023/12/07 08:15:42;;;;;;;41.10;22.50;;;;;;;-6.63;100.00;101301.23;88302;273;24167;-70
2023/12/07 08:17:44;;;;;;;39.00;23.20;;;;;;;-6.64;100.00;101300.23;88412;273;136968;-71
2023/12/07 08:19:47;;;;;;;42.40;23.90;;;;;;;-6.67;100.00;101301.70;88477;274;25115;-73
2023/12/07 08:21:51;;;;;;;35.40;20.70;;;;;;;-6.66;100.00;101297.54;88378;273;138092;-69
2023/12/07 08:23:53;;;;;;;41.50;21.20;;;;;;;-6.65;100.00;101289.91;88583;274;23147;-70
2023/12/07 08:25:57;;;;;;;39.80;23.20;;;;;;;-6.49;100.00;101306.98;88235;274;137390;-69
2023/12/07 08:27:59;;;;;;;44.40;24.40;;;;;;;-6.43;100.00;101305.55;88434;281;24014;-69
2023/12/07 08:30:01;;;;;;;43.50;23.70;;;;;;;-6.38;100.00;101302.09;88482;274;137067;-71
2023/12/07 08:32:05;;;;;;;36.60;21.90;;;;;;;-6.38;100.00;101310.56;88598;274;136761;-72
2023/12/07 08:34:07;;;;;;;38.30;22.40;;;;;;;-6.39;100.00;101305.89;89223;281;25000;-71
2023/12/07 08:36:10;;;;;;;40.90;23.90;;;;;;;-6.38;100.00;101309.36;89004;274;136744;-69
2023/12/07 08:38:12;;;;;;;38.80;23.10;;;;;;;-6.38;100.00;101316.23;88810;274;22541;-69
2023/12/07 08:40:15;;;;;;;40.30;23.10;;;;;;;-6.36;100.00;101317.73;88438;274;136726;-69
2023/12/07 08:42:20;;;;;;;42.60;23.30;;;;;;;-6.37;100.00;101316.89;88531;277;22526;-69
2023/12/07 08:44:22;;;;;;;40.80;21.10;;;;;;;-6.39;100.00;101321.84;88292;281;137774;-68
2023/12/07 08:46:25;;;;;;;46.10;23.70;;;;;;;-6.38;100.00;101322.63;88455;274;24015;-68
2023/12/07 08:48:27;;;;;;;35.10;20.80;;;;;;;-6.29;100.00;101322.14;88480;274;137511;-65
2023/12/07 08:50:29;;;;;;;32.90;19.60;;;;;;;-6.22;100.00;101312.72;88381;273;24057;-70
2023/12/07 08:52:32;;;;;;;39.10;22.20;;;;;;;-6.19;100.00;101314.54;89603;281;137355;-69
2023/12/07 08:54:48;;;;;;;43.90;24.60;;;;;;;-6.21;100.00;101308.02;88656;281;22600;-65
2023/12/07 08:56:51;;;;;;;40.30;24.10;;;;;;;-6.23;100.00;101309.64;88500;274;140704;-69
2023/12/07 08:58:53;;;;;;;44.70;27.50;;;;;;;-6.24;100.00;101307.64;88527;274;23711;-69
2023/12/07 09:00:55;;;;;;;40.40;25.30;;;;;;;-6.27;100.00;101311.69;88424;274;137195;-70
2023/12/07 09:02:58;;;;;;;37.00;23.40;;;;;;;-6.28;100.00;101309.33;88456;279;25211;-70
2023/12/07 09:05:00;;;;;;;45.50;25.80;;;;;;;-6.29;100.00;101304.84;88234;283;136670;-68
2023/12/07 09:07:02;;;;;;;43.00;25.00;;;;;;;-6.29;100.00;101302.23;88520;273;25077;-69
2023/12/07 09:09:04;;;;;;;42.00;25.60;;;;;;;-6.29;100.00;101305.70;88257;275;137200;-70
2023/12/07 09:11:06;;;;;;;39.10;24.10;;;;;;;-6.23;100.00;101301.86;88508;282;25236;-71
2023/12/07 09:13:08;;;;;;;50.20;27.70;;;;;;;-6.15;100.00;101295.87;88406;281;138471;-67
2023/12/07 09:15:10;;;;;;;37.00;23.20;;;;;;;-6.10;100.00;101291.66;88429;281;22602;-67